Time;durP1;ratioP1;P1;durP2;ratioP2;P2;SDS_P1;SDS_P2;PMS_P1;PMS_P2;Temp;Humidity;BMP_temperature;BMP_pressure;BME280_temperature;BME280_humidity;BME280_pressure;Samples;Min_cycle;Max_cycle;Signal;HPM_P1;HPM_P2
2021/09/29 00:01:48;;;;;;;8.48;5.63;;;12.70;99.90;;;;;;5059606;28;20467;-68
2021/09/29 00:04:15;;;;;;;10.18;6.22;;;12.70;99.90;;;;;;5080947;28;20048;-68
2021/09/29 00:06:43;;;;;;;7.75;5.72;;;12.70;99.90;;;;;;5079828;28;20155;-68
2021/09/29 00:09:11;;;;;;;9.25;5.85;;;12.70;99.90;;;;;;5059473;28;20045;-68
2021/09/29 00:11:38;;;;;;;10.23;6.32;;;12.70;99.90;;;;;;5085337;28;20044;-68
2021/09/29 00:14:05;;;;;;;10.88;6.25;;;12.80;99.90;;;;;;5082249;28;20064;-69
2021/09/29 00:16:33;;;;;;;9.70;5.88;;;12.80;99.90;;;;;;5083636;28;20407;-69
2021/09/29 00:19:00;;;;;;;9.77;6.03;;;12.80;99.90;;;;;;5069911;28;20083;-69
2021/09/29 00:21:27;;;;;;;7.68;5.82;;;12.90;99.90;;;;;;5081603;28;20407;-69
2021/09/29 00:23:54;;;;;;;9.27;5.70;;;12.90;99.90;;;;;;5076055;28;20078;-69
2021/09/29 00:26:22;;;;;;;7.47;5.75;;;12.90;99.90;;;;;;5073217;28;20055;-69
2021/09/29 00:28:49;;;;;;;9.95;6.60;;;12.90;99.90;;;;;;5083927;28;20044;-69
2021/09/29 00:31:26;;;;;;;9.02;6.00;;;12.90;99.90;;;;;;5059591;28;20044;-69
2021/09/29 00:34:06;;;;;;;8.43;5.97;;;12.90;99.90;;;;;;5076020;28;20040;-69
2021/09/29 00:36:39;;;;;;;7.43;5.25;;;12.90;99.90;;;;;;5072262;28;20060;-69
2021/09/29 00:39:07;;;;;;;12.55;5.93;;;12.90;99.90;;;;;;5058260;28;20045;-69
2021/09/29 00:41:35;;;;;;;9.15;6.07;;;12.90;99.90;;;;;;5071064;28;20041;-69
2021/09/29 00:44:04;;;;;;;9.73;6.30;;;12.80;99.90;;;;;;5084503;28;20417;-69
2021/09/29 00:46:32;;;;;;;9.30;6.40;;;12.90;99.90;;;;;;5067450;28;20429;-69
2021/09/29 00:48:59;;;;;;;8.85;6.47;;;12.80;99.90;;;;;;5057100;28;20040;-69
2021/09/29 00:51:27;;;;;;;10.52;7.10;;;12.80;99.90;;;;;;5074917;28;20048;-69
2021/09/29 00:53:56;;;;;;;10.02;6.85;;;12.90;99.90;;;;;;5053375;28;20064;-69
2021/09/29 00:56:23;;;;;;;7.50;5.93;;;12.90;99.90;;;;;;5056304;28;20115;-69
2021/09/29 00:58:50;;;;;;;8.73;6.07;;;12.90;99.90;;;;;;5074573;28;20067;-69
2021/09/29 01:01:18;;;;;;;7.60;5.95;;;12.90;99.90;;;;;;5073775;28;20414;-69
2021/09/29 01:03:47;;;;;;;7.75;5.63;;;12.90;99.90;;;;;;5073599;28;20048;-69
2021/09/29 01:06:27;;;;;;;8.18;5.53;;;12.90;99.90;;;;;;5075070;28;20567;-69
2021/09/29 01:09:20;;;;;;;7.90;5.32;;;12.90;99.90;;;;;;5056059;28;20048;-69
2021/09/29 01:12:10;;;;;;;7.18;4.82;;;12.90;99.90;;;;;;5086682;28;20430;-69
2021/09/29 01:14:58;;;;;;;7.38;5.50;;;12.90;99.90;;;;;;5073277;28;20055;-69
2021/09/29 01:17:28;;;;;;;6.82;5.30;;;13.00;99.90;;;;;;5073852;28;20487;-69
2021/09/29 01:20:14;;;;;;;7.90;5.18;;;13.10;99.90;;;;;;5069207;28;20044;-69
2021/09/29 01:22:49;;;;;;;6.93;5.50;;;13.10;99.90;;;;;;5062987;28;20055;-69
2021/09/29 01:25:24;;;;;;;7.93;5.30;;;13.20;99.90;;;;;;5070537;28;20048;-69
2021/09/29 01:27:54;;;;;;;8.10;5.03;;;13.20;99.90;;;;;;5072483;28;20577;-69
2021/09/29 01:30:21;;;;;;;7.75;5.57;;;13.20;99.90;;;;;;5055583;28;20422;-69
2021/09/29 01:32:49;;;;;;;8.18;5.50;;;13.20;99.90;;;;;;5073657;28;20056;-69
2021/09/29 01:35:17;;;;;;;8.18;5.43;;;13.20;99.90;;;;;;5074178;28;20501;-69
2021/09/29 01:37:45;;;;;;;6.95;5.18;;;13.20;99.90;;;;;;5069220;28;20470;-69
2021/09/29 01:40:13;;;;;;;8.13;5.28;;;13.20;99.90;;;;;;5072108;28;20406;-69
2021/09/29 01:42:41;;;;;;;9.63;5.97;;;13.10;99.90;;;;;;5089604;28;20048;-69
2021/09/29 01:45:08;;;;;;;6.93;5.25;;;13.00;99.90;;;;;;5083966;28;20549;-69
2021/09/29 01:47:36;;;;;;;8.27;5.55;;;12.90;99.90;;;;;;5087349;28;20044;-69
2021/09/29 01:50:05;;;;;;;9.80;6.07;;;12.90;99.90;;;;;;5086651;28;20090;-69
2021/09/29 01:52:38;;;;;;;6.78;5.18;;;12.70;99.90;;;;;;5073895;28;20098;-69
2021/09/29 01:55:07;;;;;;;9.65;5.07;;;12.70;99.90;;;;;;5051267;28;20053;-69
2021/09/29 01:57:36;;;;;;;8.45;6.20;;;12.70;99.90;;;;;;5077130;28;20045;-69
2021/09/29 02:00:06;;;;;;;9.07;6.25;;;12.70;99.90;;;;;;5081659;28;20984;-69
2021/09/29 02:02:42;;;;;;;8.43;5.63;;;12.70;99.90;;;;;;5077942;28;20040;-69
2021/09/29 02:05:12;;;;;;;11.57;6.65;;;12.80;99.90;;;;;;5082866;28;20109;-69
2021/09/29 02:07:40;;;;;;;10.05;6.40;;;12.70;99.90;;;;;;5083088;28;20100;-69
2021/09/29 02:10:09;;;;;;;7.40;5.55;;;12.70;99.90;;;;;;5068511;28;20116;-69
2021/09/29 02:12:36;;;;;;;9.40;6.00;;;12.70;99.90;;;;;;5083279;28;20058;-69
2021/09/29 02:15:05;;;;;;;8.98;6.72;;;12.70;99.90;;;;;;5072000;28;20036;-69
2021/09/29 02:17:33;;;;;;;10.50;6.75;;;12.60;99.90;;;;;;5075130;28;20551;-69
2021/09/29 02:20:00;;;;;;;10.70;7.60;;;12.70;99.90;;;;;;5074907;28;20414;-69
2021/09/29 02:22:27;;;;;;;10.40;7.95;;;12.70;99.90;;;;;;5068540;28;20570;-69
2021/09/29 02:24:55;;;;;;;11.38;7.80;;;12.60;99.90;;;;;;5074245;28;20045;-69
2021/09/29 02:27:22;;;;;;;9.40;7.28;;;12.60;99.90;;;;;;5078271;28;20040;-69
2021/09/29 02:29:49;;;;;;;12.15;7.40;;;12.60;99.90;;;;;;5074449;28;20048;-69
2021/09/29 02:32:17;;;;;;;11.23;7.30;;;12.60;99.90;;;;;;5088386;28;20040;-69
2021/09/29 02:34:44;;;;;;;11.57;8.20;;;12.60;99.90;;;;;;5085132;28;20410;-69
2021/09/29 02:37:11;;;;;;;13.40;7.47;;;12.50;99.90;;;;;;5085646;28;20064;-69
2021/09/29 02:39:38;;;;;;;10.82;7.95;;;12.50;99.90;;;;;;5061474;28;20450;-69
2021/09/29 02:42:06;;;;;;;13.85;8.50;;;12.50;99.90;;;;;;5080868;28;20048;-69
2021/09/29 02:44:34;;;;;;;11.15;8.18;;;12.50;99.90;;;;;;5083577;28;20050;-69
2021/09/29 02:47:02;;;;;;;11.57;7.70;;;12.50;99.90;;;;;;5077123;28;20491;-69
2021/09/29 02:49:29;;;;;;;11.15;8.15;;;12.60;99.90;;;;;;5076769;28;20079;-69
2021/09/29 02:51:56;;;;;;;9.40;7.13;;;12.60;99.90;;;;;;5072547;28;20422;-69
2021/09/29 02:54:24;;;;;;;11.50;7.90;;;12.60;99.90;;;;;;5053479;28;20042;-69
2021/09/29 02:56:51;;;;;;;10.30;8.20;;;12.70;99.90;;;;;;5078066;28;20044;-69
2021/09/29 02:59:18;;;;;;;13.30;8.02;;;12.70;99.90;;;;;;5081917;28;20506;-69
2021/09/29 03:01:46;;;;;;;10.38;7.10;;;12.70;99.90;;;;;;5088682;28;20054;-69
2021/09/29 03:04:13;;;;;;;13.90;8.68;;;12.70;99.90;;;;;;5075601;28;20443;-69
2021/09/29 03:06:40;;;;;;;10.25;8.15;;;12.80;99.90;;;;;;5072986;28;20040;-69
2021/09/29 03:09:07;;;;;;;10.07;6.95;;;12.70;99.90;;;;;;5039691;28;20049;-69
2021/09/29 03:11:35;;;;;;;10.10;7.47;;;12.80;99.90;;;;;;5075008;28;20443;-69
2021/09/29 03:14:02;;;;;;;10.88;7.28;;;12.80;99.90;;;;;;5072334;28;20048;-69
2021/09/29 03:16:30;;;;;;;9.57;7.18;;;12.90;99.90;;;;;;5068381;28;20480;-69
2021/09/29 03:18:58;;;;;;;10.02;7.30;;;12.90;99.90;;;;;;5068635;28;20907;-69
2021/09/29 03:21:25;;;;;;;11.10;8.35;;;12.90;99.90;;;;;;5087268;28;20135;-69
2021/09/29 03:23:52;;;;;;;9.70;7.72;;;13.00;99.90;;;;;;5075456;28;20040;-69
2021/09/29 03:26:20;;;;;;;10.70;8.02;;;13.00;99.90;;;;;;5083308;28;20036;-69
2021/09/29 03:28:48;;;;;;;12.02;7.97;;;13.10;99.90;;;;;;5073208;28;20036;-69
2021/09/29 03:31:15;;;;;;;11.45;7.68;;;13.10;99.90;;;;;;5086014;28;20048;-69
2021/09/29 03:33:42;;;;;;;10.65;8.02;;;13.10;99.90;;;;;;5070567;28;20032;-69
2021/09/29 03:36:10;;;;;;;10.32;7.90;;;13.10;99.90;;;;;;5073750;28;20041;-69
2021/09/29 03:38:37;;;;;;;10.88;8.13;;;13.20;99.90;;;;;;5074289;28;20052;-69
2021/09/29 03:41:05;;;;;;;10.57;8.15;;;13.20;99.90;;;;;;5075289;28;20068;-69
2021/09/29 03:43:32;;;;;;;11.43;7.45;;;13.10;99.90;;;;;;5070244;28;20437;-69
2021/09/29 03:45:59;;;;;;;10.85;7.95;;;13.10;99.90;;;;;;5038686;28;20060;-69
2021/09/29 03:48:27;;;;;;;10.25;7.22;;;13.10;99.90;;;;;;5070910;28;20474;-69
2021/09/29 03:50:54;;;;;;;11.32;7.97;;;13.10;99.90;;;;;;5070715;28;20037;-69
2021/09/29 03:53:21;;;;;;;10.77;7.65;;;13.10;99.90;;;;;;5058077;28;20125;-69
2021/09/29 03:55:49;;;;;;;10.45;7.05;;;13.10;99.90;;;;;;5082206;28;20407;-69
2021/09/29 03:58:18;;;;;;;10.68;7.70;;;13.10;99.90;;;;;;5067066;28;20044;-69
2021/09/29 04:00:46;;;;;;;9.35;7.25;;;13.10;99.90;;;;;;5084355;28;20063;-69
2021/09/29 04:03:13;;;;;;;10.50;7.45;;;13.10;99.90;;;;;;5076364;28;20399;-69
2021/09/29 04:05:40;;;;;;;9.52;7.28;;;13.10;99.90;;;;;;5071291;28;20044;-69
2021/09/29 04:08:08;;;;;;;9.43;7.25;;;13.10;99.90;;;;;;5076355;28;20044;-69
2021/09/29 04:10:35;;;;;;;13.15;7.85;;;13.10;99.90;;;;;;5088385;28;20421;-69
2021/09/29 04:13:02;;;;;;;11.10;7.30;;;13.10;99.90;;;;;;5087769;28;20052;-69
2021/09/29 04:15:30;;;;;;;14.48;9.07;;;13.10;99.90;;;;;;5074463;28;20040;-69
2021/09/29 04:17:58;;;;;;;10.98;7.50;;;13.10;99.90;;;;;;5068672;28;20059;-69
2021/09/29 04:20:25;;;;;;;11.60;7.82;;;13.00;99.90;;;;;;5072115;28;20479;-69
2021/09/29 04:22:53;;;;;;;11.60;8.40;;;13.10;99.90;;;;;;5058536;28;20047;-69
2021/09/29 04:25:21;;;;;;;11.30;8.20;;;13.10;99.90;;;;;;5080732;28;20044;-69
2021/09/29 04:27:49;;;;;;;12.55;8.52;;;13.10;99.90;;;;;;5067433;28;20048;-69
2021/09/29 04:30:16;;;;;;;11.73;8.18;;;13.10;99.90;;;;;;5084298;28;20047;-69
2021/09/29 04:32:44;;;;;;;12.25;9.00;;;13.10;99.90;;;;;;5073175;28;20064;-69
2021/09/29 04:35:12;;;;;;;9.43;7.55;;;13.20;99.90;;;;;;5068026;28;20048;-69
2021/09/29 04:37:40;;;;;;;13.00;9.10;;;13.20;99.90;;;;;;5072024;28;20162;-69
2021/09/29 04:40:08;;;;;;;12.35;8.27;;;13.20;99.90;;;;;;5082477;28;20048;-69
2021/09/29 04:42:35;;;;;;;9.73;7.45;;;13.20;99.90;;;;;;5079133;28;20520;-69
2021/09/29 04:45:03;;;;;;;14.50;8.88;;;13.20;99.90;;;;;;5088151;28;20044;-69
2021/09/29 04:47:31;;;;;;;13.15;8.65;;;13.30;99.90;;;;;;5072503;28;20577;-69
2021/09/29 04:49:59;;;;;;;11.63;8.20;;;13.30;99.90;;;;;;5075327;28;20045;-69
2021/09/29 04:52:27;;;;;;;14.35;9.35;;;13.30;99.90;;;;;;5073631;28;20036;-69
2021/09/29 04:54:54;;;;;;;16.20;9.57;;;13.40;99.90;;;;;;5071023;28;20036;-69
2021/09/29 04:57:21;;;;;;;13.77;9.43;;;13.40;99.90;;;;;;5063214;28;20140;-69
2021/09/29 04:59:48;;;;;;;14.43;10.18;;;13.40;99.90;;;;;;5073324;28;20045;-69
2021/09/29 05:02:16;;;;;;;13.75;8.75;;;13.40;99.90;;;;;;5070917;28;20076;-69
2021/09/29 05:04:43;;;;;;;15.63;10.35;;;13.40;99.90;;;;;;5056023;28;20044;-69
2021/09/29 05:07:19;;;;;;;17.17;10.55;;;13.40;99.90;;;;;;5072313;28;20566;-69
2021/09/29 05:09:49;;;;;;;16.17;10.60;;;13.50;99.90;;;;;;5070698;28;20048;-69
2021/09/29 05:12:29;;;;;;;14.95;10.38;;;13.50;99.90;;;;;;5054316;28;20051;-70
2021/09/29 05:14:57;;;;;;;12.70;9.52;;;13.50;99.90;;;;;;5058361;28;20047;-70
2021/09/29 05:17:25;;;;;;;13.05;9.10;;;13.60;99.90;;;;;;5062743;28;20131;-70
2021/09/29 05:19:52;;;;;;;12.60;9.10;;;13.60;99.90;;;;;;5072424;28;20049;-69
2021/09/29 05:22:20;;;;;;;11.77;8.43;;;13.60;99.90;;;;;;5057253;28;20079;-69
2021/09/29 05:24:47;;;;;;;10.40;8.18;;;13.60;99.90;;;;;;5067419;28;20554;-69
2021/09/29 05:27:15;;;;;;;13.52;8.85;;;13.60;99.90;;;;;;5069590;28;20118;-69
2021/09/29 05:29:47;;;;;;;11.73;8.70;;;13.60;99.90;;;;;;5061743;28;20037;-69
2021/09/29 05:32:15;;;;;;;10.73;8.27;;;13.60;99.90;;;;;;5054617;28;20067;-69
2021/09/29 05:34:42;;;;;;;13.48;8.35;;;13.70;99.90;;;;;;5072823;28;20041;-69
2021/09/29 05:37:10;;;;;;;11.35;8.05;;;13.70;99.90;;;;;;5074903;28;20054;-69
2021/09/29 05:39:37;;;;;;;11.32;8.30;;;13.70;99.90;;;;;;5067537;28;20475;-69
2021/09/29 05:42:04;;;;;;;14.88;9.05;;;13.70;99.90;;;;;;5063303;28;20067;-69
2021/09/29 05:44:33;;;;;;;12.02;9.02;;;13.70;99.90;;;;;;5056066;28;20519;-68
2021/09/29 05:47:01;;;;;;;11.27;9.15;;;13.70;99.90;;;;;;5040404;28;20041;-68
2021/09/29 05:49:28;;;;;;;10.85;8.52;;;13.70;99.90;;;;;;5036369;28;20037;-68
2021/09/29 05:51:56;;;;;;;14.77;10.25;;;13.60;99.90;;;;;;5050464;28;20389;-69
2021/09/29 05:54:23;;;;;;;15.48;9.57;;;13.60;99.90;;;;;;5041235;28;20143;-68
2021/09/29 05:56:50;;;;;;;13.05;9.75;;;13.60;99.90;;;;;;5077794;28;20092;-68
2021/09/29 05:59:18;;;;;;;12.18;9.82;;;13.60;99.90;;;;;;5077259;28;20044;-68
2021/09/29 06:01:45;;;;;;;12.95;9.70;;;13.70;99.90;;;;;;5081350;28;20039;-68
2021/09/29 06:04:13;;;;;;;13.95;10.48;;;13.70;99.90;;;;;;5067601;28;20150;-68
2021/09/29 06:06:41;;;;;;;14.88;10.40;;;13.60;99.90;;;;;;5070480;28;20044;-69
2021/09/29 06:09:09;;;;;;;19.33;12.77;;;13.60;99.90;;;;;;5076986;28;20106;-68
2021/09/29 06:11:36;;;;;;;16.70;12.00;;;13.60;99.90;;;;;;5073956;28;20044;-68
2021/09/29 06:14:04;;;;;;;16.38;12.40;;;13.60;99.90;;;;;;5080635;28;20047;-68
2021/09/29 06:16:36;;;;;;;13.48;10.18;;;13.60;99.90;;;;;;5067429;28;20074;-68
2021/09/29 06:19:04;;;;;;;15.82;10.98;;;13.60;99.90;;;;;;5076138;28;20051;-68
2021/09/29 06:21:32;;;;;;;14.15;9.90;;;13.60;99.90;;;;;;5079529;28;20470;-68
2021/09/29 06:23:59;;;;;;;16.90;11.15;;;13.60;99.90;;;;;;5082085;28;20068;-67
2021/09/29 06:26:27;;;;;;;15.27;10.85;;;13.60;99.90;;;;;;5057940;28;20044;-68
2021/09/29 06:28:58;;;;;;;21.40;12.40;;;13.70;99.90;;;;;;5037172;28;20055;-68
2021/09/29 06:31:26;;;;;;;17.60;11.98;;;13.70;99.90;;;;;;5069242;28;20723;-69
2021/09/29 06:33:53;;;;;;;15.75;10.57;;;13.80;99.90;;;;;;5073864;28;20063;-68
2021/09/29 06:36:21;;;;;;;14.25;11.05;;;13.90;99.90;;;;;;5074350;28;20056;-68
2021/09/29 06:38:48;;;;;;;14.80;11.00;;;14.00;99.90;;;;;;5060041;28;20642;-68
2021/09/29 06:41:17;;;;;;;13.75;10.45;;;14.10;99.90;;;;;;5079334;28;20043;-68
2021/09/29 06:43:45;;;;;;;15.80;10.38;;;14.10;99.90;;;;;;5082605;28;20044;-68
2021/09/29 06:46:12;;;;;;;15.85;10.45;;;14.20;99.90;;;;;;5082948;28;20040;-68
2021/09/29 06:48:42;;;;;;;14.52;10.50;;;14.30;99.90;;;;;;5072023;28;20052;-68
2021/09/29 06:51:09;;;;;;;17.95;11.32;;;14.40;99.90;;;;;;5079711;28;20064;-68
2021/09/29 06:53:37;;;;;;;18.50;11.07;;;14.40;99.90;;;;;;5050541;28;20454;-68
2021/09/29 06:56:05;;;;;;;15.55;10.48;;;14.40;99.90;;;;;;5068979;28;20040;-68
2021/09/29 06:58:34;;;;;;;18.02;11.32;;;14.50;99.90;;;;;;5069189;28;20125;-68
2021/09/29 07:01:01;;;;;;;19.85;11.02;;;14.50;99.90;;;;;;5067937;28;20055;-68
2021/09/29 07:03:29;;;;;;;17.05;11.75;;;14.50;99.90;;;;;;5081417;28;20051;-68
2021/09/29 07:05:57;;;;;;;14.10;10.10;;;14.50;99.90;;;;;;5056303;28;20056;-68
2021/09/29 07:08:24;;;;;;;15.60;10.52;;;14.50;99.90;;;;;;5059658;28;20043;-68
2021/09/29 07:10:51;;;;;;;17.92;11.27;;;14.60;99.90;;;;;;5069486;28;20044;-68
2021/09/29 07:13:19;;;;;;;17.02;10.38;;;14.60;99.90;;;;;;5074526;28;20036;-67
2021/09/29 07:15:47;;;;;;;12.35;9.73;;;14.70;99.90;;;;;;5069516;28;20044;-67
2021/09/29 07:18:16;;;;;;;13.52;8.68;;;14.90;99.90;;;;;;5072812;28;20601;-67
2021/09/29 07:20:47;;;;;;;13.32;9.32;;;14.90;99.90;;;;;;5069941;28;20117;-67
2021/09/29 07:23:14;;;;;;;13.13;8.02;;;15.00;99.90;;;;;;5066186;28;20040;-67
2021/09/29 07:25:41;;;;;;;14.13;7.85;;;14.90;99.90;;;;;;5066401;28;20375;-68
2021/09/29 07:28:09;;;;;;;12.40;7.68;;;15.00;99.90;;;;;;5055424;28;20055;-67
2021/09/29 07:30:37;;;;;;;11.88;8.25;;;15.20;99.90;;;;;;5055385;28;20471;-68
2021/09/29 07:33:06;;;;;;;13.40;8.45;;;15.30;99.90;;;;;;5058541;28;20039;-68
2021/09/29 07:35:34;;;;;;;12.40;8.25;;;15.30;99.90;;;;;;5077120;28;20040;-68
2021/09/29 07:38:01;;;;;;;14.13;8.48;;;15.40;99.90;;;;;;5079536;28;20132;-68
2021/09/29 07:40:30;;;;;;;13.68;7.25;;;15.40;99.90;;;;;;5069318;28;20102;-69
2021/09/29 07:42:57;;;;;;;12.00;6.45;;;15.30;99.90;;;;;;5068251;28;20072;-68
2021/09/29 07:45:25;;;;;;;14.50;6.95;;;15.10;99.90;;;;;;5074529;28;20054;-67
2021/09/29 07:47:53;;;;;;;9.07;6.05;;;14.90;99.90;;;;;;5071883;28;20036;-68
2021/09/29 07:50:21;;;;;;;15.60;7.20;;;14.80;99.90;;;;;;5077980;28;20040;-68
2021/09/29 07:52:51;;;;;;;9.48;5.68;;;14.80;99.90;;;;;;5075948;28;20105;-68
2021/09/29 07:55:18;;;;;;;10.43;5.75;;;14.80;99.90;;;;;;5077495;28;20047;-69
2021/09/29 07:57:46;;;;;;;11.07;6.07;;;14.90;99.90;;;;;;5080254;28;20041;-69
2021/09/29 08:00:17;;;;;;;9.13;6.50;;;15.10;99.90;;;;;;5084300;28;20044;-69
2021/09/29 08:02:45;;;;;;;11.30;6.72;;;15.20;99.90;;;;;;5080678;28;20044;-69
2021/09/29 08:05:14;;;;;;;10.45;6.07;;;15.40;99.90;;;;;;5083565;28;20101;-70
2021/09/29 08:07:50;;;;;;;10.32;6.13;;;15.50;99.90;;;;;;5083010;28;20109;-68
2021/09/29 08:10:19;;;;;;;10.20;5.30;;;15.70;99.90;;;;;;5088986;28;20051;-68
2021/09/29 08:12:51;;;;;;;9.40;5.28;;;16.00;99.90;;;;;;5089086;28;20067;-68
2021/09/29 08:15:18;;;;;;;9.68;4.78;;;16.20;99.90;;;;;;5088275;28;20036;-68
2021/09/29 08:17:47;;;;;;;11.15;4.68;;;16.20;99.90;;;;;;5085105;28;20052;-68
2021/09/29 08:20:18;;;;;;;9.00;4.53;;;16.20;99.90;;;;;;5082275;28;20040;-68
2021/09/29 08:22:52;;;;;;;5.72;3.63;;;16.30;99.90;;;;;;5072258;28;20070;-68
2021/09/29 08:31:02;;;;;;;8.82;3.83;;;16.60;99.90;;;;;;5085433;28;20509;-68
2021/09/29 08:39:15;;;;;;;10.02;3.65;;;16.70;99.90;;;;;;5046515;28;20551;-68
2021/09/29 08:47:33;;;;;;;7.68;3.45;;;16.70;99.90;;;;;;5006453;28;20064;-68
2021/09/29 08:55:32;;;;;;;5.82;3.28;;;17.10;99.90;;;;;;5007696;28;20453;-68
2021/09/29 09:14:42;;;;;;;5.55;3.25;;;17.20;99.90;;;;;;5007119;28;20536;-68
2021/09/29 09:15:47;;;;;;;5.82;2.20;;;18.20;99.90;;;;;;5044548;28;20139;-68
2021/09/29 09:18:16;;;;;;;7.18;2.22;;;18.10;99.90;;;;;;5021270;28;20088;-69
2021/09/29 09:21:19;;;;;;;9.98;3.58;;;18.10;99.90;;;;;;4991194;28;20504;-69
2021/09/29 09:23:41;;;;;;;7.65;2.47;;;18.10;99.90;;;;;;4972041;28;20058;-69
2021/09/29 09:26:17;;;;;;;6.00;2.13;;;18.10;99.90;;;;;;5001218;28;20513;-69
2021/09/29 09:28:46;;;;;;;4.07;1.88;;;18.10;99.90;;;;;;5018414;28;20044;-69
2021/09/29 09:31:16;;;;;;;4.40;1.88;;;18.10;99.90;;;;;;4992103;28;20049;-68
2021/09/29 09:33:59;;;;;;;3.88;1.90;;;18.30;99.90;;;;;;4993344;28;20053;-67
2021/09/29 09:36:43;;;;;;;4.50;1.58;;;18.50;99.90;;;;;;5068569;28;20056;-67
2021/09/29 09:39:18;;;;;;;5.30;1.60;;;18.50;99.90;;;;;;5075705;28;20151;-67
2021/09/29 09:41:48;;;;;;;5.78;2.00;;;18.60;99.90;;;;;;5079936;28;20051;-67
2021/09/29 09:44:27;;;;;;;4.47;1.55;;;18.50;99.90;;;;;;5058147;28;20068;-67
2021/09/29 09:47:11;;;;;;;4.20;1.42;;;18.30;99.90;;;;;;5049469;28;20056;-68
2021/09/29 09:49:51;;;;;;;6.15;1.92;;;18.40;99.90;;;;;;5061666;28;20473;-67
2021/09/29 09:52:27;;;;;;;7.13;1.77;;;18.50;99.90;;;;;;5073421;28;20048;-67
2021/09/29 09:55:03;;;;;;;8.57;1.92;;;18.40;99.90;;;;;;5055046;28;20032;-68
2021/09/29 09:57:33;;;;;;;5.07;1.52;;;18.70;99.90;;;;;;5067122;28;20152;-68
2021/09/29 10:00:00;;;;;;;6.38;1.80;;;18.70;99.90;;;;;;5072486;28;20559;-67
2021/09/29 10:02:47;;;;;;;7.28;1.52;;;18.70;99.90;;;;;;5079315;28;20470;-68
2021/09/29 10:05:17;;;;;;;5.22;1.77;;;18.90;99.90;;;;;;5075047;28;20051;-68
2021/09/29 10:07:45;;;;;;;10.45;1.80;;;19.20;99.90;;;;;;5076284;28;20101;-67
2021/09/29 10:10:32;;;;;;;4.88;1.38;;;19.50;99.90;;;;;;5071462;28;20098;-68
2021/09/29 10:13:30;;;;;;;3.67;1.63;;;19.50;99.90;;;;;;5081165;28;20045;-68
2021/09/29 10:27:07;;;;;;;6.00;1.52;;;19.90;99.90;;;;;;5063549;28;20140;-68
2021/09/29 10:29:48;;;;;;;3.83;1.40;;;19.70;99.90;;;;;;5066798;28;20036;-68
2021/09/29 10:32:20;;;;;;;5.43;1.60;;;19.50;99.90;;;;;;5074477;28;20553;-68
2021/09/29 10:35:14;;;;;;;3.70;1.42;;;19.40;99.90;;;;;;5061381;28;20036;-68
2021/09/29 11:05:53;;;;;;;4.10;1.70;;;18.60;99.90;;;;;;5074839;28;20036;-68
2021/09/29 11:28:05;;;;;;;6.65;1.50;;;20.80;99.90;;;;;;5046900;28;20049;-67
2021/09/29 11:30:39;;;;;;;5.95;1.48;;;20.80;99.90;;;;;;5054367;28;20044;-67
2021/09/29 11:35:50;;;;;;;4.05;1.10;;;20.70;99.90;;;;;;5068727;28;20383;-67
2021/09/29 12:09:51;;;;;;;5.50;1.52;;;20.30;99.90;;;;;;5053229;28;20048;-68
2021/09/29 12:14:57;;;;;;;5.53;1.27;;;20.00;99.90;;;;;;5071628;28;20054;-68
2021/09/29 12:17:27;;;;;;;5.68;1.48;;;20.00;99.90;;;;;;5077853;28;20051;-68
2021/09/29 12:20:09;;;;;;;5.63;1.42;;;20.20;99.90;;;;;;5071570;28;20044;-68
2021/09/29 12:22:45;;;;;;;5.60;1.38;;;20.30;99.90;;;;;;5064808;28;20043;-67
2021/09/29 12:25:16;;;;;;;6.35;1.33;;;20.10;99.90;;;;;;5073996;28;20048;-67
2021/09/29 12:30:32;;;;;;;6.28;1.35;;;20.10;99.90;;;;;;5081367;28;20052;-67
2021/09/29 12:33:13;;;;;;;5.03;1.30;;;20.10;99.90;;;;;;5054041;28;20367;-67
2021/09/29 12:35:54;;;;;;;2.30;1.00;;;20.80;99.90;;;;;;5063829;28;20481;-68
2021/09/29 12:38:34;;;;;;;4.45;1.10;;;22.10;99.90;;;;;;5071889;28;20063;-68
2021/09/29 12:41:02;;;;;;;5.93;1.23;;;23.00;99.90;;;;;;5072711;28;20052;-68
2021/09/29 12:43:29;;;;;;;3.50;1.23;;;24.50;99.90;;;;;;5060705;28;20050;-67
2021/09/29 12:45:57;;;;;;;3.95;1.30;;;25.70;99.90;;;;;;5072618;28;20051;-67
2021/09/29 12:48:26;;;;;;;5.30;1.30;;;26.70;99.90;;;;;;5078622;28;20044;-68
2021/09/29 12:51:01;;;;;;;4.05;1.15;;;26.60;99.90;;;;;;5058315;28;20044;-67
2021/09/29 12:53:39;;;;;;;2.78;0.90;;;25.30;99.90;;;;;;5069198;28;20051;-67
2021/09/29 12:56:18;;;;;;;2.75;1.00;;;23.40;99.90;;;;;;5073258;28;20457;-68
2021/09/29 12:58:46;;;;;;;3.70;1.00;;;22.30;99.90;;;;;;5072455;28;20351;-68
2021/09/29 13:01:15;;;;;;;2.80;1.10;;;21.50;99.90;;;;;;5073389;28;20553;-67
2021/09/29 13:03:43;;;;;;;4.78;1.10;;;21.00;99.90;;;;;;5071809;28;20101;-68
2021/09/29 13:06:12;;;;;;;2.42;1.02;;;20.90;99.90;;;;;;5072380;28;20044;-68
2021/09/29 13:08:40;;;;;;;3.95;1.20;;;20.90;99.90;;;;;;5066956;28;20037;-68
2021/09/29 13:11:08;;;;;;;3.40;0.95;;;20.80;99.90;;;;;;5079434;28;20824;-68
2021/09/29 13:13:35;;;;;;;3.97;1.23;;;20.60;99.90;;;;;;5081953;28;20503;-68
2021/09/29 13:16:05;;;;;;;6.55;1.40;;;20.50;99.90;;;;;;5083636;28;20141;-68
2021/09/29 13:21:07;;;;;;;5.28;1.42;;;20.30;99.90;;;;;;5061704;28;20491;-68
2021/09/29 13:23:42;;;;;;;5.68;1.20;;;20.20;99.90;;;;;;5075158;28;20391;-68
2021/09/29 13:37:14;;;;;;;7.32;1.00;;;25.40;99.90;;;;;;5086196;28;20082;-68
2021/09/29 13:39:42;;;;;;;5.82;1.13;;;25.50;99.90;;;;;;5079675;28;20055;-68
2021/09/29 13:42:09;;;;;;;3.85;1.00;;;25.10;99.90;;;;;;5069861;28;20052;-67
2021/09/29 13:44:37;;;;;;;3.92;1.20;;;25.20;99.90;;;;;;5064039;28;20414;-68
2021/09/29 13:47:04;;;;;;;3.75;1.10;;;25.90;99.90;;;;;;5085670;28;20434;-68
2021/09/29 13:49:32;;;;;;;3.42;0.90;;;27.10;99.90;;;;;;5085095;28;20131;-68
2021/09/29 13:51:59;;;;;;;5.53;1.13;;;29.00;98.50;;;;;;5086167;28;20135;-68
2021/09/29 13:54:27;;;;;;;2.25;0.88;;;28.40;97.00;;;;;;5085333;28;20075;-67
2021/09/29 13:57:02;;;;;;;4.70;1.00;;;30.20;94.40;;;;;;5082089;28;20475;-68
2021/09/29 14:29:44;;;;;;;3.92;1.00;;;20.80;99.90;;;;;;5057275;28;20041;-67
2021/09/29 14:32:16;;;;;;;3.60;0.90;;;20.50;99.90;;;;;;5054051;28;20102;-67
2021/09/29 14:34:44;;;;;;;4.20;0.90;;;20.10;99.90;;;;;;5067209;28;20090;-67
2021/09/29 14:37:11;;;;;;;2.03;0.90;;;19.90;99.90;;;;;;5080029;28;20086;-67
2021/09/29 14:39:39;;;;;;;3.25;0.73;;;19.70;99.90;;;;;;5067438;28;20139;-67
2021/09/29 14:42:07;;;;;;;3.20;1.00;;;19.60;99.90;;;;;;5069517;28;20052;-67
2021/09/29 14:44:35;;;;;;;4.80;0.90;;;19.50;99.90;;;;;;5047752;28;20048;-65
2021/09/29 14:47:10;;;;;;;4.25;1.83;;;19.50;99.90;;;;;;5054534;28;20033;-67
2021/09/29 14:49:42;;;;;;;3.88;1.40;;;19.30;99.90;;;;;;5053426;28;20055;-67
2021/09/29 14:52:12;;;;;;;3.97;1.00;;;19.20;99.90;;;;;;5057318;28;20692;-68
2021/09/29 14:54:40;;;;;;;2.50;0.93;;;19.10;99.90;;;;;;5069939;28;20064;-68
2021/09/29 14:57:11;;;;;;;3.45;0.90;;;18.90;99.90;;;;;;5067226;28;20410;-66
2021/09/29 14:59:46;;;;;;;7.35;1.15;;;18.80;99.90;;;;;;5068592;28;20056;-67
2021/09/29 15:02:15;;;;;;;7.85;1.20;;;18.70;99.90;;;;;;5050107;28;20558;-66
2021/09/29 15:04:44;;;;;;;5.47;1.00;;;17.80;99.90;;;;;;5056011;28;20399;-66
2021/09/29 15:07:11;;;;;;;4.32;1.20;;;16.40;99.90;;;;;;5052932;28;20048;-67
2021/09/29 15:09:39;;;;;;;3.67;1.02;;;15.30;99.90;;;;;;5060179;28;20083;-68
2021/09/29 15:12:07;;;;;;;4.63;1.33;;;14.60;99.90;;;;;;5083929;28;20044;-67
2021/09/29 15:17:09;;;;;;;8.90;1.90;;;14.10;99.90;;;;;;5064870;28;20048;-68
2021/09/29 15:24:52;;;;;;;4.13;1.35;;;14.40;99.90;;;;;;5078517;28;20513;-68
2021/09/29 15:48:58;;;;;;;3.08;1.00;;;14.10;99.90;;;;;;5081638;28;20573;-67
2021/09/29 15:51:49;;;;;;;4.28;1.00;;;14.10;99.90;;;;;;5070187;28;20067;-67
2021/09/29 15:54:32;;;;;;;2.70;0.90;;;14.00;99.90;;;;;;5065145;28;20036;-67
2021/09/29 16:02:06;;;;;;;4.35;1.25;;;13.80;99.90;;;;;;5064810;28;20171;-68
2021/09/29 16:04:51;;;;;;;3.63;1.10;;;13.80;99.90;;;;;;5071869;28;20079;-68
2021/09/29 16:13:18;;;;;;;2.30;1.38;;;13.80;99.90;;;;;;5061087;28;20143;-68
2021/09/29 16:21:36;;;;;;;1.75;1.10;;;13.80;99.90;;;;;;5059851;28;20102;-68
2021/09/29 16:32:52;;;;;;;1.65;0.73;;;13.80;99.90;;;;;;5077037;28;20063;-67
2021/09/29 16:35:01;;;;;;;4.40;1.15;;;13.70;99.90;;;;;;5075153;28;20044;-67
2021/09/29 16:37:29;;;;;;;3.47;1.20;;;13.70;99.90;;;;;;5078805;28;20058;-68
2021/09/29 16:39:58;;;;;;;1.95;0.90;;;13.70;99.90;;;;;;5074125;28;20520;-67
2021/09/29 16:42:26;;;;;;;2.83;1.00;;;13.60;99.90;;;;;;5068514;28;20048;-68
2021/09/29 16:44:53;;;;;;;4.05;0.90;;;13.60;99.90;;;;;;5074123;28;20059;-67
2021/09/29 16:47:20;;;;;;;1.67;0.90;;;13.50;99.90;;;;;;5075057;28;20434;-68
2021/09/29 16:49:48;;;;;;;3.00;1.15;;;13.50;99.90;;;;;;5058279;28;20036;-68